Time;durP1;ratioP1;P1;durP2;ratioP2;P2;SDS_P1;SDS_P2;PMS_P1;PMS_P2;Temp;Humidity;BMP_temperature;BMP_pressure;BME280_temperature;BME280_humidity;BME280_pressure;Samples;Min_cycle;Max_cycle;Signal;HPM_P1;HPM_P2
2023/09/04 00:01:36;;;;;;;;;;;;;;;15.52;100.00;101980.03;6170107;23;19921;-80
2023/09/04 00:04:03;;;;;;;;;;;;;;;15.47;100.00;101977.03;6169462;23;19927;-82
2023/09/04 00:06:30;;;;;;;;;;;;;;;15.48;100.00;101978.69;6168203;23;20338;-82
2023/09/04 00:09:04;;;;;;;;;;;;;;;15.52;100.00;101971.28;6168570;23;19956;-84
2023/09/04 00:11:32;;;;;;;;;;;;;;;15.51;100.00;101972.28;6167974;23;19939;-82
2023/09/04 00:13:58;;;;;;;;;;;;;;;15.49;100.00;101971.59;6167834;23;19927;-82
2023/09/04 00:16:24;;;;;;;;;;;;;;;15.47;100.00;101961.19;6166609;23;19917;-83
2023/09/04 00:18:51;;;;;;;;;;;;;;;15.45;100.00;101968.44;6167207;23;20261;-82
2023/09/04 00:21:18;;;;;;;;;;;;;;;15.42;100.00;101968.75;6166933;23;19921;-81
2023/09/04 00:23:44;;;;;;;;;;;;;;;15.46;100.00;101970.09;6166730;23;19924;-81
2023/09/04 00:26:10;;;;;;;;;;;;;;;15.42;100.00;101974.03;6168103;23;19916;-84
2023/09/04 00:28:38;;;;;;;;;;;;;;;15.35;100.00;101965.06;6168740;23;19916;-84
2023/09/04 00:31:04;;;;;;;;;;;;;;;15.30;100.00;101967.34;6164215;23;19950;-85
2023/09/04 00:33:31;;;;;;;;;;;;;;;15.24;100.00;101966.16;6162615;23;19958;-85
2023/09/04 00:36:00;;;;;;;;;;;;;;;15.26;100.00;101963.34;6166469;23;19940;-84
2023/09/04 00:38:34;;;;;;;;;;;;;;;15.24;100.00;101968.78;6170454;23;19917;-83
2023/09/04 00:41:11;;;;;;;;;;;;;;;15.19;100.00;101965.78;6170519;23;19917;-83
2023/09/04 00:43:42;;;;;;;;;;;;;;;15.13;100.00;101962.91;6169851;23;19916;-83
2023/09/04 00:46:11;;;;;;;;;;;;;;;15.16;100.00;101967.88;6169437;23;19949;-83
2023/09/04 00:48:39;;;;;;;;;;;;;;;15.16;100.00;101963.44;6168513;23;19916;-80
2023/09/04 00:51:18;;;;;;;;;;;;;;;15.16;100.00;101963.44;6168953;23;19916;-79
2023/09/04 00:53:44;;;;;;;;;;;;;;;15.13;100.00;101960.28;6168863;23;19927;-82
2023/09/04 00:56:15;;;;;;;;;;;;;;;15.10;100.00;101953.53;6168446;23;20368;-82
2023/09/04 00:58:43;;;;;;;;;;;;;;;15.07;100.00;101955.66;6168157;23;19928;-82
2023/09/04 01:01:10;;;;;;;;;;;;;;;15.04;100.00;101966.50;6168344;23;19956;-81
2023/09/04 01:03:36;;;;;;;;;;;;;;;15.03;100.00;101954.31;6168730;23;19927;-81
2023/09/04 01:06:03;;;;;;;;;;;;;;;15.00;100.00;101951.97;6168153;23;19932;-82
2023/09/04 01:08:29;;;;;;;;;;;;;;;14.97;100.00;101952.28;6168641;23;19916;-82
2023/09/04 01:11:02;;;;;;;;;;;;;;;14.93;100.00;101957.84;6168857;23;19940;-83
2023/09/04 01:13:31;;;;;;;;;;;;;;;14.96;100.00;101954.09;6171078;23;19945;-83
2023/09/04 01:16:00;;;;;;;;;;;;;;;14.93;100.00;101952.56;6169878;23;19925;-82
2023/09/04 01:18:28;;;;;;;;;;;;;;;14.94;100.00;101948.97;6168608;23;20007;-83
2023/09/04 01:21:02;;;;;;;;;;;;;;;14.93;100.00;101952.56;6166635;23;20020;-81
2023/09/04 01:23:28;;;;;;;;;;;;;;;14.92;100.00;101945.66;6167770;23;19917;-83
2023/09/04 01:25:56;;;;;;;;;;;;;;;14.91;100.00;101944.00;6166532;23;19916;-83
2023/09/04 01:28:25;;;;;;;;;;;;;;;14.86;100.00;101942.78;6168335;23;19924;-84
2023/09/04 01:30:57;;;;;;;;;;;;;;;14.86;100.00;101946.25;6169965;23;20282;-83
2023/09/04 01:33:28;;;;;;;;;;;;;;;14.82;100.00;101947.53;6170872;23;19928;-81
2023/09/04 01:35:55;;;;;;;;;;;;;;;14.80;100.00;101941.59;6170372;23;19920;-83
2023/09/04 01:38:23;;;;;;;;;;;;;;;14.80;100.00;101938.13;6169970;23;20260;-79
2023/09/04 01:40:51;;;;;;;;;;;;;;;14.77;100.00;101944.53;6170306;23;20338;-84
2023/09/04 01:43:17;;;;;;;;;;;;;;;14.71;100.00;101939.84;6168329;23;19917;-82
2023/09/04 01:45:43;;;;;;;;;;;;;;;14.62;100.00;101943.41;6170333;23;19916;-85
2023/09/04 01:48:10;;;;;;;;;;;;;;;14.56;100.00;101946.66;6169550;23;19923;-84
2023/09/04 01:50:36;;;;;;;;;;;;;;;14.50;100.00;101936.72;6171670;23;19916;-83
2023/09/04 01:53:03;;;;;;;;;;;;;;;14.49;100.00;101937.69;6171364;23;19935;-84
2023/09/04 01:55:30;;;;;;;;;;;;;;;14.50;100.00;101944.63;6169996;23;19916;-83
2023/09/04 01:57:57;;;;;;;;;;;;;;;14.49;100.00;101937.69;6157164;23;19920;-81
2023/09/04 02:00:23;;;;;;;;;;;;;;;14.51;100.00;101941.00;6160491;23;19951;-81
2023/09/04 02:02:50;;;;;;;;;;;;;;;14.49;100.00;101953.50;6160300;23;19947;-82
2023/09/04 02:05:16;;;;;;;;;;;;;;;14.48;100.00;101944.75;6159617;23;19921;-81
2023/09/04 02:07:43;;;;;;;;;;;;;;;14.45;100.00;101949.50;6160575;23;19955;-80
2023/09/04 02:10:09;;;;;;;;;;;;;;;14.40;100.00;101944.63;6161167;23;20268;-81
2023/09/04 02:12:37;;;;;;;;;;;;;;;14.36;100.00;101945.09;6161035;23;19944;-84
2023/09/04 02:15:04;;;;;;;;;;;;;;;14.34;100.00;101939.13;6160606;23;19924;-82
2023/09/04 02:17:30;;;;;;;;;;;;;;;14.32;100.00;101951.63;6161171;23;19951;-83
2023/09/04 02:19:56;;;;;;;;;;;;;;;14.22;100.00;101947.25;6160976;23;19979;-81
2023/09/04 02:22:24;;;;;;;;;;;;;;;14.16;100.00;101947.03;6161322;23;19940;-83
2023/09/04 02:24:50;;;;;;;;;;;;;;;14.10;100.00;101950.25;6160916;23;20292;-82
2023/09/04 02:27:17;;;;;;;;;;;;;;;14.08;100.00;101945.13;6159650;23;19931;-79
2023/09/04 02:29:45;;;;;;;;;;;;;;;14.08;100.00;101947.75;6159862;23;19952;-81
2023/09/04 02:32:11;;;;;;;;;;;;;;;14.06;100.00;101946.25;6159162;23;19959;-81
2023/09/04 02:34:40;;;;;;;;;;;;;;;14.01;100.00;101948.50;6160012;23;20336;-80
2023/09/04 02:37:06;;;;;;;;;;;;;;;14.00;100.00;101950.28;6158697;23;19921;-80
2023/09/04 02:39:32;;;;;;;;;;;;;;;13.96;100.00;101943.66;6160708;23;19917;-80
2023/09/04 02:41:59;;;;;;;;;;;;;;;13.93;100.00;101941.31;6160208;23;19948;-83
2023/09/04 02:44:25;;;;;;;;;;;;;;;13.91;100.00;101932.75;6159891;23;19940;-79
2023/09/04 02:46:53;;;;;;;;;;;;;;;13.89;100.00;101939.94;6159934;23;19979;-81
2023/09/04 02:49:19;;;;;;;;;;;;;;;13.88;100.00;101938.28;6160524;23;19920;-79
2023/09/04 02:51:46;;;;;;;;;;;;;;;13.80;100.00;101938.19;6160848;23;19959;-80
2023/09/04 02:54:12;;;;;;;;;;;;;;;13.79;100.00;101939.97;6161057;23;20020;-79
2023/09/04 02:56:38;;;;;;;;;;;;;;;13.77;100.00;101947.19;6161137;23;19944;-82
2023/09/04 02:59:05;;;;;;;;;;;;;;;13.75;100.00;101940.41;6160372;23;19956;-80
2023/09/04 03:01:33;;;;;;;;;;;;;;;13.77;100.00;101944.56;6159881;23;20269;-79
2023/09/04 03:04:00;;;;;;;;;;;;;;;13.80;100.00;101946.06;6159894;23;19971;-80
2023/09/04 03:06:27;;;;;;;;;;;;;;;13.81;100.00;101951.19;6159802;23;19917;-81
2023/09/04 03:08:53;;;;;;;;;;;;;;;13.81;100.00;101945.94;6160418;23;19917;-81
2023/09/04 03:11:20;;;;;;;;;;;;;;;13.79;100.00;101947.03;6160201;23;19920;-81
2023/09/04 03:13:46;;;;;;;;;;;;;;;13.76;100.00;101955.22;6156814;23;19928;-83
2023/09/04 03:16:13;;;;;;;;;;;;;;;13.70;100.00;101954.03;6158303;23;19978;-81
2023/09/04 03:18:39;;;;;;;;;;;;;;;13.67;100.00;101959.56;6159502;23;19957;-81
2023/09/04 03:21:09;;;;;;;;;;;;;;;13.66;100.00;101962.34;6159270;23;19964;-83
2023/09/04 03:23:36;;;;;;;;;;;;;;;13.63;100.00;101962.63;6159198;23;19956;-80
2023/09/04 03:26:02;;;;;;;;;;;;;;;13.62;100.00;101964.44;6159504;23;19921;-80
2023/09/04 03:28:28;;;;;;;;;;;;;;;13.59;100.00;101965.56;6132790;23;20016;-81
2023/09/04 03:30:55;;;;;;;;;;;;;;;13.56;100.00;101960.56;6131525;23;19940;-80
2023/09/04 03:33:21;;;;;;;;;;;;;;;13.57;100.00;101951.72;6131158;23;19924;-83
2023/09/04 03:35:48;;;;;;;;;;;;;;;13.52;100.00;101959.19;6131925;23;19951;-82
2023/09/04 03:38:16;;;;;;;;;;;;;;;13.50;100.00;101962.94;6131002;23;19924;-81
2023/09/04 03:40:42;;;;;;;;;;;;;;;13.49;100.00;101956.03;6131868;23;20258;-82
2023/09/04 03:43:09;;;;;;;;;;;;;;;13.47;100.00;101950.06;6132497;23;19920;-82
2023/09/04 03:45:35;;;;;;;;;;;;;;;13.44;100.00;101951.19;6132960;23;20242;-80
2023/09/04 03:48:02;;;;;;;;;;;;;;;13.40;100.00;101936.66;6132270;23;19921;-83
2023/09/04 03:50:29;;;;;;;;;;;;;;;13.38;100.00;101938.63;6135012;23;19924;-80
2023/09/04 03:52:55;;;;;;;;;;;;;;;13.34;100.00;101934.59;6137155;23;19928;-79
2023/09/04 03:55:24;;;;;;;;;;;;;;;13.37;100.00;101941.38;6136370;23;19917;-79
2023/09/04 03:57:53;;;;;;;;;;;;;;;13.34;100.00;101942.50;6135674;23;19916;-82
2023/09/04 04:00:20;;;;;;;;;;;;;;;13.28;100.00;101936.00;6133164;23;19940;-82
2023/09/04 04:02:48;;;;;;;;;;;;;;;13.30;100.00;101946.38;6133919;23;19917;-82
2023/09/04 04:05:15;;;;;;;;;;;;;;;13.29;100.00;101937.66;6134619;23;19924;-84
2023/09/04 04:07:42;;;;;;;;;;;;;;;13.29;100.00;101936.84;6133137;23;19940;-83
2023/09/04 04:10:09;;;;;;;;;;;;;;;13.26;100.00;101937.94;6132198;23;19953;-81
2023/09/04 04:12:36;;;;;;;;;;;;;;;13.21;100.00;101950.72;6132675;23;19934;-82
2023/09/04 04:15:06;;;;;;;;;;;;;;;13.19;100.00;101936.88;6130770;23;19972;-83
2023/09/04 04:17:32;;;;;;;;;;;;;;;13.19;100.00;101947.38;6132074;23;19917;-80
2023/09/04 04:19:59;;;;;;;;;;;;;;;13.16;100.00;101952.09;6131988;23;20124;-81
2023/09/04 04:22:25;;;;;;;;;;;;;;;13.14;100.00;101954.00;6132422;23;19917;-81
2023/09/04 04:24:52;;;;;;;;;;;;;;;13.14;100.00;101954.00;6132402;23;19967;-82
2023/09/04 04:27:18;;;;;;;;;;;;;;;13.13;100.00;101954.97;6130692;23;19936;-82
2023/09/04 04:29:46;;;;;;;;;;;;;;;13.15;100.00;101960.91;6131903;23;19941;-81
2023/09/04 04:32:13;;;;;;;;;;;;;;;13.18;100.00;101958.03;6131598;23;19941;-80
2023/09/04 04:34:40;;;;;;;;;;;;;;;13.19;100.00;101957.06;6131760;23;19948;-80
2023/09/04 04:37:07;;;;;;;;;;;;;;;13.18;100.00;101964.13;6132055;23;19916;-81
2023/09/04 04:39:33;;;;;;;;;;;;;;;13.23;100.00;101958.44;6131795;23;19916;-80
2023/09/04 04:42:00;;;;;;;;;;;;;;;13.23;100.00;101953.19;6131338;23;19916;-78
2023/09/04 04:44:26;;;;;;;;;;;;;;;13.21;100.00;101961.22;6131230;23;19936;-81
2023/09/04 04:46:54;;;;;;;;;;;;;;;13.23;100.00;101958.44;6131095;23;20299;-81
2023/09/04 04:49:21;;;;;;;;;;;;;;;13.21;100.00;101961.22;6132116;23;19916;-80
2023/09/04 04:51:47;;;;;;;;;;;;;;;13.26;100.00;101955.50;6131683;23;19956;-82
2023/09/04 04:54:13;;;;;;;;;;;;;;;13.32;100.00;101962.84;6132026;23;19917;-80
2023/09/04 04:56:40;;;;;;;;;;;;;;;13.35;100.00;101962.56;6131895;23;19952;-81
2023/09/04 04:59:07;;;;;;;;;;;;;;;13.38;100.00;101966.69;6131273;23;19956;-81
2023/09/04 05:01:34;;;;;;;;;;;;;;;13.41;100.00;101980.41;6132101;23;19917;-81
2023/09/04 05:04:01;;;;;;;;;;;;;;;13.44;100.00;101974.84;6131922;23;19917;-82
2023/09/04 05:06:28;;;;;;;;;;;;;;;13.47;100.00;101971.94;6133352;23;20326;-81
2023/09/04 05:08:54;;;;;;;;;;;;;;;13.50;100.00;101976.91;6132245;23;19917;-79
2023/09/04 05:11:21;;;;;;;;;;;;;;;13.52;100.00;101972.34;6131048;23;19917;-79
2023/09/04 05:13:47;;;;;;;;;;;;;;;13.51;100.00;101965.44;6130281;23;20314;-79
2023/09/04 05:16:13;;;;;;;;;;;;;;;13.51;100.00;101968.06;6130280;23;19921;-78
2023/09/04 05:18:40;;;;;;;;;;;;;;;13.53;100.00;101971.38;6130937;23;19916;-81
2023/09/04 05:21:08;;;;;;;;;;;;;;;13.56;100.00;101975.53;6130474;23;19940;-78
2023/09/04 05:23:34;;;;;;;;;;;;;;;13.61;100.00;101968.88;6131394;23;20377;-81
2023/09/04 05:26:01;;;;;;;;;;;;;;;13.66;100.00;101970.25;6131280;23;19940;-79
2023/09/04 05:28:27;;;;;;;;;;;;;;;13.69;100.00;101972.59;6131119;23;19952;-80
2023/09/04 05:30:54;;;;;;;;;;;;;;;13.77;100.00;101972.66;6131723;23;19916;-80
2023/09/04 05:33:20;;;;;;;;;;;;;;;13.87;100.00;101974.28;6131416;23;20310;-79
2023/09/04 05:35:54;;;;;;;;;;;;;;;13.95;100.00;101970.94;6131432;23;19949;-81
2023/09/04 05:38:22;;;;;;;;;;;;;;;14.01;100.00;101973.00;6131034;23;19952;-79
2023/09/04 05:40:49;;;;;;;17.83;11.98;;;;;;;14.08;100.00;101966.19;6130840;23;19925;-80
2023/09/04 05:43:16;;;;;;;15.00;11.48;;;;;;;14.08;100.00;101968.81;6129508;23;20101;-79
2023/09/04 05:45:42;;;;;;;13.55;11.93;;;;;;;14.12;100.00;101967.53;6130038;23;20022;-80
2023/09/04 05:48:09;;;;;;;17.67;12.25;;;;;;;14.23;100.00;101969.97;6128750;23;20084;-79
2023/09/04 05:50:37;;;;;;;17.17;11.82;;;;;;;14.31;100.00;101961.31;6129685;23;20109;-80
2023/09/04 05:53:09;;;;;;;13.77;12.30;;;;;;;14.45;100.00;101958.22;6129362;23;20058;-79
2023/09/04 05:55:37;;;;;;;18.60;11.63;;;;;;;14.62;100.00;101953.13;6129679;23;20057;-80
2023/09/04 05:58:04;;;;;;;13.10;11.45;;;;;;;14.72;100.00;101959.94;6130616;23;20077;-80
2023/09/04 06:00:31;;;;;;;14.77;11.57;;;;;;;14.75;100.00;101957.03;6131185;23;20411;-80
2023/09/04 06:02:59;;;;;;;14.13;10.98;;;;;;;14.89;100.00;101961.75;6130585;23;20060;-80
2023/09/04 06:05:26;;;;;;;12.27;10.75;;;;;;;15.12;100.00;101954.19;6129669;23;20090;-79
2023/09/04 06:07:52;;;;;;;12.65;10.30;;;;;;;15.19;100.00;101942.03;6130513;23;20026;-80
2023/09/04 06:10:19;;;;;;;12.48;10.77;;;;;;;15.39;100.00;101947.97;6130230;23;20029;-80
2023/09/04 06:12:47;;;;;;;15.52;10.70;;;;;;;15.65;100.00;101936.56;6129816;23;20053;-79
2023/09/04 06:15:14;;;;;;;12.57;10.48;;;;;;;15.94;100.00;101944.97;6128169;23;20076;-79
2023/09/04 06:17:40;;;;;;;12.55;10.18;;;;;;;16.70;100.00;101947.47;6129465;23;20025;-80
2023/09/04 06:20:08;;;;;;;9.40;8.35;;;;;;;17.54;100.00;101933.81;6127728;23;20064;-80
2023/09/04 06:22:35;;;;;;;11.65;8.05;;;;;;;18.37;96.58;101919.25;6130285;23;20363;-81
2023/09/04 06:25:01;;;;;;;10.40;7.90;;;;;;;19.18;91.81;101911.44;6130156;23;20053;-80
2023/09/04 06:27:28;;;;;;;8.45;7.32;;;;;;;19.73;87.13;101896.91;6129379;23;20032;-79
2023/09/04 06:29:56;;;;;;;8.35;7.07;;;;;;;19.99;83.91;101888.41;6130730;23;20366;-80
2023/09/04 06:32:22;;;;;;;10.43;7.15;;;;;;;20.38;81.76;101890.69;6130058;23;20062;-80
2023/09/04 06:34:49;;;;;;;8.65;6.80;;;;;;;19.54;81.56;101882.38;6129492;23;20060;-80
2023/09/04 06:37:15;;;;;;;8.32;6.95;;;;;;;19.84;82.52;101891.13;6128069;23;20053;-78
2023/09/04 06:39:42;;;;;;;9.48;6.93;;;;;;;19.99;82.30;101891.06;6128991;23;20026;-80
2023/09/04 06:42:09;;;;;;;10.63;6.85;;;;;;;20.31;81.92;101894.28;6129787;23;20046;-78
2023/09/04 06:44:35;;;;;;;9.95;6.85;;;;;;;20.77;79.53;101884.91;6131028;23;20025;-81
2023/09/04 06:47:03;;;;;;;8.77;6.97;;;;;;;20.77;79.20;101890.22;6129576;23;20494;-83
2023/09/04 06:49:30;;;;;;;9.32;6.20;;;;;;;20.80;79.93;101899.63;6129794;23;20068;-81
2023/09/04 06:51:56;;;;;;;10.15;6.43;;;;;;;21.05;77.88;101879.56;6130720;23;20022;-79
2023/09/04 06:54:24;;;;;;;9.02;6.28;;;;;;;21.14;78.12;101878.41;6131620;23;20065;-81
2023/09/04 06:56:50;;;;;;;11.43;6.43;;;;;;;21.51;77.63;101874.53;6130599;23;20141;-79
2023/09/04 06:59:17;;;;;;;8.52;6.00;;;;;;;22.49;75.05;101878.50;6130347;23;20026;-80
2023/09/04 07:01:44;;;;;;;9.52;5.95;;;;;;;22.02;74.44;101866.13;6130694;23;20026;-80
2023/09/04 07:04:12;;;;;;;10.23;6.38;;;;;;;21.23;76.45;101881.78;6129309;23;20022;-78
2023/09/04 07:06:38;;;;;;;8.57;5.80;;;;;;;21.67;76.42;101875.22;6130555;23;20022;-79
2023/09/04 07:09:05;;;;;;;10.07;5.95;;;;;;;20.92;77.49;101886.63;6127126;23;20026;-80
2023/09/04 07:11:31;;;;;;;9.60;5.47;;;;;;;21.37;77.31;101883.47;6126103;23;20065;-79
2023/09/04 07:13:58;;;;;;;7.40;5.60;;;;;;;21.95;74.56;101861.78;6126169;23;20093;-79
2023/09/04 07:16:25;;;;;;;9.68;5.18;;;;;;;22.18;73.07;101868.44;6126825;23;20509;-80
2023/09/04 07:18:52;;;;;;;7.90;5.38;;;;;;;21.92;72.52;101851.53;6126994;23;20538;-78
2023/09/04 07:21:21;;;;;;;8.43;5.00;;;;;;;22.13;72.46;101854.91;6125709;23;20101;-80
2023/09/04 07:23:48;;;;;;;6.38;4.78;;;;;;;21.66;72.95;101852.28;6126097;23;20022;-78
2023/09/04 07:26:14;;;;;;;8.40;4.78;;;;;;;22.00;73.20;101862.81;6129384;23;20479;-77
2023/09/04 07:28:41;;;;;;;6.80;4.95;;;;;;;21.00;73.94;101854.56;6125441;23;20113;-80
2023/09/04 07:31:17;;;;;;;6.25;4.72;;;;;;;21.23;74.49;101865.81;6124433;23;20057;-78
2023/09/04 07:33:43;;;;;;;6.55;4.90;;;;;;;21.62;74.59;101873.16;6124704;23;20028;-79
2023/09/04 07:36:10;;;;;;;8.02;4.45;;;;;;;21.32;73.60;101861.94;6125368;23;20373;-79
2023/09/04 07:38:38;;;;;;;6.35;4.22;;;;;;;21.38;72.77;101852.34;6124959;23;20101;-79
2023/09/04 07:41:05;;;;;;;5.88;4.47;;;;;;;21.66;73.21;101857.59;6124554;23;20097;-79
2023/09/04 07:43:33;;;;;;;7.35;4.65;;;;;;;21.90;70.43;101835.72;6128558;23;20058;-80
2023/09/04 07:46:00;;;;;;;5.63;4.40;;;;;;;22.05;69.95;101838.25;6127982;23;20049;-80
2023/09/04 07:48:27;;;;;;;6.43;4.28;;;;;;;22.69;68.90;101843.00;6128990;23;20022;-80
2023/09/04 07:50:54;;;;;;;6.93;4.35;;;;;;;22.36;68.62;101837.66;6129388;23;20101;-81
2023/09/04 07:53:21;;;;;;;6.50;4.45;;;;;;;21.87;68.76;101838.78;6128265;23;20485;-80
2023/09/04 07:55:49;;;;;;;5.22;4.20;;;;;;;22.18;69.54;101852.44;6129328;23;20072;-81
2023/09/04 07:58:20;;;;;;;8.15;4.30;;;;;;;21.85;68.97;101830.19;6152412;23;20467;-83
2023/09/04 08:00:54;;;;;;;8.70;4.23;;;;;;;22.53;68.70;101838.91;6164063;23;20052;-81
2023/09/04 08:03:21;;;;;;;8.75;4.35;;;;;;;22.68;68.07;101836.88;6162506;23;20450;-81
2023/09/04 08:05:56;;;;;;;8.05;4.93;;;;;;;22.46;67.75;101827.41;6161634;23;20308;-82
2023/09/04 08:08:23;;;;;;;7.00;4.50;;;;;;;22.63;67.81;101812.66;6160892;23;20350;-82
2023/09/04 08:10:51;;;;;;;5.38;4.13;;;;;;;22.67;67.24;101843.22;6161430;23;20052;-81
2023/09/04 08:13:19;;;;;;;10.18;4.70;;;;;;;22.24;68.11;101849.97;6159968;23;20026;-80
2023/09/04 08:15:46;;;;;;;6.15;4.63;;;;;;;22.14;67.87;101853.06;6159847;23;20084;-81
2023/09/04 08:18:13;;;;;;;7.63;4.80;;;;;;;22.44;67.79;101848.16;6160291;23;20026;-82
2023/09/04 08:20:40;;;;;;;6.30;4.53;;;;;;;23.17;65.86;101820.34;6160813;23;20045;-81
2023/09/04 08:23:07;;;;;;;6.22;4.57;;;;;;;23.02;66.17;101845.66;6160995;23;20036;-84
2023/09/04 08:25:34;;;;;;;7.10;4.82;;;;;;;22.70;66.54;101837.44;6160281;23;20097;-81
2023/09/04 08:28:03;;;;;;;7.93;4.35;;;;;;;23.13;66.38;101837.84;6160779;23;20045;-80
2023/09/04 08:30:30;;;;;;;6.55;4.63;;;;;;;23.40;65.87;101832.38;6160339;23;20025;-80
2023/09/04 08:32:59;;;;;;;6.10;4.65;;;;;;;23.74;64.91;101809.84;6159536;23;20025;-81
2023/09/04 08:35:28;;;;;;;5.82;4.30;;;;;;;23.12;66.10;101840.72;6161315;23;20052;-83
2023/09/04 08:37:55;;;;;;;5.03;4.40;;;;;;;23.17;66.23;101835.53;6161691;23;20032;-81
2023/09/04 08:40:22;;;;;;;6.57;4.20;;;;;;;23.32;66.37;101844.13;6162922;23;20037;-81
2023/09/04 08:42:55;;;;;;;7.63;4.38;;;;;;;23.96;65.41;101831.72;6165516;23;20029;-82
2023/09/04 08:45:24;;;;;;;8.38;4.28;;;;;;;24.04;65.19;101829.63;6167155;23;20025;-84
2023/09/04 08:47:53;;;;;;;8.15;4.72;;;;;;;23.11;65.84;101837.22;6161521;23;20021;-80
2023/09/04 08:50:21;;;;;;;7.82;4.68;;;;;;;23.07;66.64;101851.19;6159044;23;20025;-79
2023/09/04 08:52:50;;;;;;;5.15;4.15;;;;;;;23.09;66.30;101830.44;6159756;23;20084;-80
2023/09/04 08:55:19;;;;;;;7.60;5.00;;;;;;;23.04;66.23;101827.59;6158779;23;20057;-82
2023/09/04 08:57:45;;;;;;;5.88;4.72;;;;;;;22.91;66.85;101841.78;6159279;23;20025;-82
2023/09/04 09:00:13;;;;;;;8.20;4.68;;;;;;;23.02;67.29;101833.13;6159441;23;20025;-81
2023/09/04 09:02:42;;;;;;;5.90;4.80;;;;;;;23.03;66.52;101823.28;6158813;23;20025;-81
2023/09/04 09:05:10;;;;;;;6.05;4.70;;;;;;;23.00;67.48;101829.84;6159136;23;20022;-78
2023/09/04 09:07:39;;;;;;;6.90;4.72;;;;;;;22.69;67.23;101833.13;6157514;23;20064;-81
2023/09/04 09:10:09;;;;;;;7.30;5.00;;;;;;;22.84;67.85;101831.09;6158479;23;20033;-79
2023/09/04 09:12:36;;;;;;;9.07;4.95;;;;;;;22.74;67.63;101840.53;6158689;23;20048;-81
2023/09/04 09:15:03;;;;;;;6.63;4.40;;;;;;;23.03;67.36;101840.13;6158351;23;20060;-78
2023/09/04 09:17:30;;;;;;;8.48;4.93;;;;;;;23.10;66.57;101829.41;6159318;23;20057;-81
2023/09/04 09:19:58;;;;;;;7.38;4.50;;;;;;;23.26;67.66;101828.13;6159674;23;20030;-82
2023/09/04 09:22:24;;;;;;;6.53;4.65;;;;;;;23.46;66.54;101829.69;6159675;23;20374;-81
2023/09/04 09:24:53;;;;;;;5.03;4.30;;;;;;;22.74;67.03;101820.00;6160697;23;20094;-82
2023/09/04 09:27:22;;;;;;;5.85;4.88;;;;;;;22.84;68.13;101836.44;6159266;23;20049;-81
2023/09/04 09:29:49;;;;;;;;;;;;;;;22.86;67.36;101824.75;6160050;23;20369;-81
2023/09/04 09:32:16;;;;;;;;;;;;;;;22.83;67.41;101820.63;6156576;23;20361;-81
2023/09/04 09:34:48;;;;;;;;;;;;;;;22.90;67.56;101823.31;6157212;23;19925;-79
2023/09/04 09:37:16;;;;;;;;;;;;;;;22.94;67.28;101819.19;6156508;23;19924;-79
2023/09/04 09:39:42;;;;;;;;;;;;;;;22.94;67.25;101805.84;6158004;23;19929;-80
2023/09/04 09:42:09;;;;;;;;;;;;;;;23.38;67.37;101819.25;6157334;23;19920;-80
2023/09/04 09:44:35;;;;;;;;;;;;;;;23.55;65.44;101798.25;6157172;23;19920;-80
2023/09/04 09:47:02;;;;;;;;;;;;;;;23.34;65.79;101794.00;6156902;23;19921;-80
2023/09/04 09:49:30;;;;;;;;;;;;;;;23.49;66.44;101802.56;6156732;23;19971;-83
2023/09/04 09:51:57;;;;;;;;;;;;;;;22.88;66.54;101788.81;6156301;23;19948;-81
2023/09/04 09:54:35;;;;;;;;;;;;;;;23.02;66.51;101792.28;6158082;23;19928;-79
2023/09/04 09:57:03;;;;;;;;;;;;;;;23.16;66.81;101794.66;6156522;23;19924;-79
2023/09/04 09:59:29;;;;;;;;;;;;;;;22.93;65.99;101774.84;6156655;23;19928;-81
2023/09/04 10:02:02;;;;;;;;;;;;;;;22.91;65.60;101771.56;6157233;23;19920;-81
2023/09/04 10:04:28;;;;;;;;;;;;;;;22.87;66.61;101770.34;6157476;23;19920;-82
2023/09/04 10:06:57;;;;;;;;;;;;;;;23.23;65.60;101756.44;6157075;23;19951;-80
2023/09/04 10:09:27;;;;;;;;;;;;;;;23.37;66.03;101766.84;6158379;23;19928;-82
2023/09/04 10:12:00;;;;;;;;;;;;;;;23.58;64.78;101751.59;6159070;23;19920;-79
2023/09/04 10:14:29;;;;;;;;;;;;;;;23.82;64.51;101759.63;6158011;23;20239;-80
2023/09/04 10:16:57;;;;;;;;;;;;;;;23.65;63.15;101747.00;6157867;23;19924;-79
2023/09/04 10:19:31;;;;;;;;;;;;;;;23.55;64.37;101757.34;6158091;23;20273;-82
2023/09/04 10:22:00;;;;;;;;;;;;;;;23.69;64.50;101758.88;6157486;23;19927;-84
2023/09/04 10:24:31;;;;;;;;;;;;;;;23.71;62.85;101740.78;6158257;23;19952;-81
2023/09/04 10:27:01;;;;;;;;;;;;;;;23.65;63.25;101744.31;6156980;23;20475;-83
2023/09/04 10:29:30;;;;;;;;;;;;;;;23.90;63.70;101760.41;6158731;23;19921;-80
2023/09/04 10:31:57;;;;;;;;;;;;;;;24.25;62.70;101736.66;6159136;23;19932;-82
2023/09/04 10:34:24;;;;;;;;;;;;;;;23.98;62.54;101736.91;6160484;23;19928;-80
2023/09/04 10:36:53;;;;;;;;;;;;;;;24.19;61.92;101737.53;6160809;23;20094;-82
2023/09/04 10:39:19;;;;;;;;;;;;;;;23.81;61.66;101738.47;6162683;23;20290;-82
2023/09/04 10:41:46;;;;;;;;;;;;;;;23.99;61.17;101725.19;6164831;23;19927;-83
2023/09/04 10:44:30;;;;;;;;;;;;;;;23.99;61.01;101727.03;6162152;23;19932;-82
2023/09/04 10:46:58;;;;;;;;;;;;;;;24.00;61.69;101734.84;6161879;23;19975;-84
2023/09/04 10:49:33;;;;;;;;;;;;;;;23.93;60.09;101712.69;6162961;23;19973;-81
2023/09/04 10:52:00;;;;;;;;;;;;;;;24.32;60.63;101718.72;6137489;23;20008;-84
2023/09/04 10:54:26;;;;;;;;;;;;;;;24.23;60.11;101712.81;6162913;23;19925;-84
2023/09/04 10:56:53;;;;;;;;;;;;;;;24.40;59.89;101718.44;6168483;23;19932;-83
2023/09/04 10:59:20;;;;;;;;;;;;;;;24.69;60.49;101717.72;6169947;23;19932;-82
2023/09/04 11:01:52;;;;;;;;;;;;;;;24.62;59.35;101711.63;6175741;23;19920;-84
2023/09/04 11:04:31;;;;;;;;;;;;;;;24.49;59.58;101711.78;6175259;23;19925;-83
2023/09/04 11:07:16;;;;;;;;;;;;;;;24.78;59.65;101705.66;6167156;23;19986;-82
2023/09/04 11:09:43;;;;;;;;;;;;;;;24.85;59.56;101704.78;6169611;23;19927;-82
2023/09/04 11:12:10;;;;;;;;;;;;;;;25.14;59.08;101704.00;6172173;23;19921;-82
2023/09/04 11:14:44;;;;;;;;;;;;;;;24.93;59.02;101702.63;6168334;23;19965;-83
2023/09/04 11:17:11;;;;;;;;;;;;;;;24.74;60.01;101709.84;6168522;23;19928;-82
2023/09/04 11:19:39;;;;;;;;;;;;;;;25.16;59.25;101704.59;6167853;23;19921;-85
2023/09/04 11:22:05;;;;;;;;;;;;;;;25.40;59.55;101697.47;6167062;23;20238;-85
2023/09/04 11:24:32;;;;;;;;;;;;;;;24.87;58.71;101682.09;6165046;23;19925;-82
2023/09/04 11:26:58;;;;;;;;;;;;;;;25.01;57.65;101672.91;6165314;23;19924;-84
2023/09/04 11:29:25;;;;;;;;;;;;;;;25.16;58.39;101680.50;6165705;23;19932;-87
2023/09/04 11:31:51;;;;;;;;;;;;;;;25.43;58.32;101676.41;6164976;23;19925;-83
2023/09/04 11:34:21;;;;;;;;;;;;;;;24.93;58.78;101683.06;6164497;23;19924;-84
2023/09/04 11:36:49;;;;;;;;;;;;;;;25.23;59.10;101691.94;6164865;23;19927;-83
2023/09/04 11:39:15;;;;;;;;;;;;;;;25.64;59.81;101701.88;6166009;23;19921;-85
2023/09/04 11:41:42;;;;;;;;;;;;;;;25.29;58.53;101688.34;6167844;23;19944;-84
2023/09/04 11:44:08;;;;;;;;;;;;;;;25.22;58.59;101678.78;6165198;23;20394;-84
2023/09/04 11:46:35;;;;;;;;;;;;;;;25.26;58.78;101670.06;6164685;23;19948;-81
2023/09/04 11:49:03;;;;;;;;;;;;;;;25.41;58.98;101672.31;6165956;23;19956;-85
2023/09/04 11:51:30;;;;;;;;;;;;;;;25.90;58.29;101665.78;6166497;23;20262;-83
2023/09/04 11:53:58;;;;;;;;;;;;;;;25.70;58.24;101659.94;6164798;23;20265;-86
2023/09/04 11:56:24;;;;;;;;;;;;;;;25.97;58.39;101655.78;6165003;23;19967;-84
2023/09/04 11:58:54;;;;;;;;;;;;;;;25.86;58.79;101659.25;6165432;23;19952;-84
2023/09/04 12:01:20;;;;;;;;;;;;;;;25.59;58.48;101642.75;6165542;23;19932;-83
2023/09/04 12:03:47;;;;;;;;;;;;;;;25.72;58.55;101641.75;6174320;23;19921;-84
2023/09/04 12:06:13;;;;;;;;;;;;;;;25.68;57.63;101629.84;6177302;23;19921;-83
2023/09/04 12:08:40;;;;;;;;;;;;;;;25.96;58.34;101643.41;6172820;23;19920;-83